sensor_id;sensor_type;location;lat;lon;timestamp;P1;durP1;ratioP1;P2;durP2;ratioP2
20531;SDS011;10424;52.102;8.084;2024-02-16T00:00:59;7.22;;;3.70;;
20531;SDS011;10424;52.102;8.084;2024-02-16T00:03:27;7.03;;;3.58;;
20531;SDS011;10424;52.102;8.084;2024-02-16T00:05:54;5.43;;;3.17;;
20531;SDS011;10424;52.102;8.084;2024-02-16T00:08:22;7.22;;;3.50;;
20531;SDS011;10424;52.102;8.084;2024-02-16T00:10:49;5.75;;;3.60;;
20531;SDS011;10424;52.102;8.084;2024-02-16T00:13:16;5.50;;;3.58;;
20531;SDS011;10424;52.102;8.084;2024-02-16T00:15:43;7.80;;;3.80;;
20531;SDS011;10424;52.102;8.084;2024-02-16T00:18:11;7.78;;;3.55;;
20531;SDS011;10424;52.102;8.084;2024-02-16T00:20:39;8.20;;;3.67;;
20531;SDS011;10424;52.102;8.084;2024-02-16T00:23:06;7.97;;;4.45;;
20531;SDS011;10424;52.102;8.084;2024-02-16T00:25:34;7.35;;;3.90;;
20531;SDS011;10424;52.102;8.084;2024-02-16T00:28:01;6.68;;;4.03;;
20531;SDS011;10424;52.102;8.084;2024-02-16T00:30:29;4.88;;;3.80;;
20531;SDS011;10424;52.102;8.084;2024-02-16T00:32:56;8.73;;;4.63;;
20531;SDS011;10424;52.102;8.084;2024-02-16T00:35:23;5.97;;;3.53;;
20531;SDS011;10424;52.102;8.084;2024-02-16T00:37:52;6.60;;;3.67;;
20531;SDS011;10424;52.102;8.084;2024-02-16T00:40:19;6.75;;;3.60;;
20531;SDS011;10424;52.102;8.084;2024-02-16T00:42:48;6.60;;;3.40;;
20531;SDS011;10424;52.102;8.084;2024-02-16T00:45:15;7.85;;;3.60;;
20531;SDS011;10424;52.102;8.084;2024-02-16T00:47:42;8.77;;;3.78;;
20531;SDS011;10424;52.102;8.084;2024-02-16T00:50:10;7.47;;;3.50;;
20531;SDS011;10424;52.102;8.084;2024-02-16T00:52:38;9.88;;;4.25;;
20531;SDS011;10424;52.102;8.084;2024-02-16T00:55:07;7.35;;;3.40;;
20531;SDS011;10424;52.102;8.084;2024-02-16T00:57:35;8.32;;;3.42;;
20531;SDS011;10424;52.102;8.084;2024-02-16T01:00:02;6.75;;;3.90;;
20531;SDS011;10424;52.102;8.084;2024-02-16T01:02:29;8.65;;;3.83;;
20531;SDS011;10424;52.102;8.084;2024-02-16T01:04:58;4.57;;;3.33;;
20531;SDS011;10424;52.102;8.084;2024-02-16T01:07:27;5.10;;;3.20;;
20531;SDS011;10424;52.102;8.084;2024-02-16T01:09:56;6.32;;;3.58;;
20531;SDS011;10424;52.102;8.084;2024-02-16T01:12:25;5.95;;;3.30;;
20531;SDS011;10424;52.102;8.084;2024-02-16T01:14:52;7.80;;;3.40;;
20531;SDS011;10424;52.102;8.084;2024-02-16T01:17:19;5.28;;;3.10;;
20531;SDS011;10424;52.102;8.084;2024-02-16T01:19:46;9.30;;;3.40;;
20531;SDS011;10424;52.102;8.084;2024-02-16T01:22:13;7.15;;;3.70;;
20531;SDS011;10424;52.102;8.084;2024-02-16T01:24:41;6.38;;;3.67;;
20531;SDS011;10424;52.102;8.084;2024-02-16T01:27:08;7.70;;;3.72;;
20531;SDS011;10424;52.102;8.084;2024-02-16T01:29:37;7.45;;;3.40;;
20531;SDS011;10424;52.102;8.084;2024-02-16T01:32:04;8.93;;;3.60;;
20531;SDS011;10424;52.102;8.084;2024-02-16T01:34:31;6.47;;;3.47;;
20531;SDS011;10424;52.102;8.084;2024-02-16T01:36:58;7.10;;;3.22;;
20531;SDS011;10424;52.102;8.084;2024-02-16T01:39:26;7.88;;;3.30;;
20531;SDS011;10424;52.102;8.084;2024-02-16T01:41:53;5.20;;;3.17;;
20531;SDS011;10424;52.102;8.084;2024-02-16T01:44:20;6.22;;;3.40;;
20531;SDS011;10424;52.102;8.084;2024-02-16T01:46:48;6.40;;;3.25;;
20531;SDS011;10424;52.102;8.084;2024-02-16T01:49:16;8.98;;;3.30;;
20531;SDS011;10424;52.102;8.084;2024-02-16T01:51:43;7.65;;;3.22;;
20531;SDS011;10424;52.102;8.084;2024-02-16T01:54:11;8.77;;;3.30;;
20531;SDS011;10424;52.102;8.084;2024-02-16T01:56:38;6.15;;;3.13;;
20531;SDS011;10424;52.102;8.084;2024-02-16T01:59:06;6.03;;;3.17;;
20531;SDS011;10424;52.102;8.084;2024-02-16T02:01:33;5.88;;;3.38;;
20531;SDS011;10424;52.102;8.084;2024-02-16T02:04:02;6.82;;;3.10;;
20531;SDS011;10424;52.102;8.084;2024-02-16T02:06:31;9.30;;;3.60;;
20531;SDS011;10424;52.102;8.084;2024-02-16T02:08:58;7.63;;;3.97;;
20531;SDS011;10424;52.102;8.084;2024-02-16T02:11:25;5.22;;;3.10;;
20531;SDS011;10424;52.102;8.084;2024-02-16T02:13:52;7.22;;;3.20;;
20531;SDS011;10424;52.102;8.084;2024-02-16T02:16:19;3.72;;;2.85;;
20531;SDS011;10424;52.102;8.084;2024-02-16T02:18:47;6.53;;;3.50;;
20531;SDS011;10424;52.102;8.084;2024-02-16T02:21:16;6.65;;;3.13;;
20531;SDS011;10424;52.102;8.084;2024-02-16T02:23:44;7.70;;;3.20;;
20531;SDS011;10424;52.102;8.084;2024-02-16T02:26:13;5.15;;;3.13;;
20531;SDS011;10424;52.102;8.084;2024-02-16T02:28:41;6.65;;;3.50;;
20531;SDS011;10424;52.102;8.084;2024-02-16T02:31:08;5.35;;;3.10;;
20531;SDS011;10424;52.102;8.084;2024-02-16T02:33:36;5.95;;;3.00;;
20531;SDS011;10424;52.102;8.084;2024-02-16T02:36:03;4.50;;;3.00;;
20531;SDS011;10424;52.102;8.084;2024-02-16T02:38:31;5.47;;;3.20;;
20531;SDS011;10424;52.102;8.084;2024-02-16T02:40:59;5.78;;;3.00;;
20531;SDS011;10424;52.102;8.084;2024-02-16T02:43:28;5.38;;;3.28;;
20531;SDS011;10424;52.102;8.084;2024-02-16T02:45:56;4.07;;;2.92;;
20531;SDS011;10424;52.102;8.084;2024-02-16T02:48:23;7.70;;;3.20;;
20531;SDS011;10424;52.102;8.084;2024-02-16T02:50:50;5.80;;;3.00;;
20531;SDS011;10424;52.102;8.084;2024-02-16T02:53:17;8.20;;;3.10;;
20531;SDS011;10424;52.102;8.084;2024-02-16T02:55:44;6.72;;;3.08;;
20531;SDS011;10424;52.102;8.084;2024-02-16T02:58:13;10.88;;;3.10;;
20531;SDS011;10424;52.102;8.084;2024-02-16T03:00:40;5.13;;;3.10;;
20531;SDS011;10424;52.102;8.084;2024-02-16T03:03:07;7.60;;;3.03;;
20531;SDS011;10424;52.102;8.084;2024-02-16T03:05:34;5.63;;;3.28;;
20531;SDS011;10424;52.102;8.084;2024-02-16T03:08:01;4.65;;;3.25;;
20531;SDS011;10424;52.102;8.084;2024-02-16T03:10:29;5.30;;;3.00;;
20531;SDS011;10424;52.102;8.084;2024-02-16T03:12:59;5.25;;;2.97;;
20531;SDS011;10424;52.102;8.084;2024-02-16T03:15:29;6.82;;;2.90;;
20531;SDS011;10424;52.102;8.084;2024-02-16T03:17:56;5.25;;;3.15;;
20531;SDS011;10424;52.102;8.084;2024-02-16T03:20:23;4.45;;;3.00;;
20531;SDS011;10424;52.102;8.084;2024-02-16T03:22:50;5.30;;;3.00;;
20531;SDS011;10424;52.102;8.084;2024-02-16T03:25:18;8.00;;;2.97;;
20531;SDS011;10424;52.102;8.084;2024-02-16T03:27:46;4.95;;;3.28;;
20531;SDS011;10424;52.102;8.084;2024-02-16T03:30:13;8.00;;;3.42;;
20531;SDS011;10424;52.102;8.084;2024-02-16T03:32:41;6.38;;;3.25;;
20531;SDS011;10424;52.102;8.084;2024-02-16T03:35:08;6.82;;;3.00;;
20531;SDS011;10424;52.102;8.084;2024-02-16T03:37:35;5.18;;;3.28;;
20531;SDS011;10424;52.102;8.084;2024-02-16T03:40:04;7.13;;;2.92;;
20531;SDS011;10424;52.102;8.084;2024-02-16T03:42:33;6.18;;;3.33;;
20531;SDS011;10424;52.102;8.084;2024-02-16T03:45:00;4.40;;;2.80;;
20531;SDS011;10424;52.102;8.084;2024-02-16T03:47:27;5.25;;;3.05;;
20531;SDS011;10424;52.102;8.084;2024-02-16T03:49:56;5.35;;;3.10;;
20531;SDS011;10424;52.102;8.084;2024-02-16T03:52:23;4.82;;;2.67;;
20531;SDS011;10424;52.102;8.084;2024-02-16T03:54:50;7.25;;;3.13;;
20531;SDS011;10424;52.102;8.084;2024-02-16T03:57:17;5.50;;;3.47;;
20531;SDS011;10424;52.102;8.084;2024-02-16T03:59:44;5.55;;;3.03;;
20531;SDS011;10424;52.102;8.084;2024-02-16T04:02:12;5.65;;;3.20;;
20531;SDS011;10424;52.102;8.084;2024-02-16T04:04:39;9.75;;;3.33;;
20531;SDS011;10424;52.102;8.084;2024-02-16T04:07:08;5.18;;;3.10;;
20531;SDS011;10424;52.102;8.084;2024-02-16T04:09:35;3.65;;;2.90;;
20531;SDS011;10424;52.102;8.084;2024-02-16T04:12:02;7.50;;;3.00;;
20531;SDS011;10424;52.102;8.084;2024-02-16T04:14:29;7.95;;;3.70;;
20531;SDS011;10424;52.102;8.084;2024-02-16T04:16:58;7.28;;;3.00;;
20531;SDS011;10424;52.102;8.084;2024-02-16T04:19:26;7.80;;;2.97;;
20531;SDS011;10424;52.102;8.084;2024-02-16T04:21:53;5.22;;;3.00;;
20531;SDS011;10424;52.102;8.084;2024-02-16T04:24:21;5.05;;;3.20;;
20531;SDS011;10424;52.102;8.084;2024-02-16T04:26:48;7.07;;;3.03;;
20531;SDS011;10424;52.102;8.084;2024-02-16T04:29:16;5.07;;;2.88;;
20531;SDS011;10424;52.102;8.084;2024-02-16T04:31:43;6.00;;;3.47;;
20531;SDS011;10424;52.102;8.084;2024-02-16T04:34:11;8.07;;;3.10;;
20531;SDS011;10424;52.102;8.084;2024-02-16T04:36:39;4.68;;;3.03;;
20531;SDS011;10424;52.102;8.084;2024-02-16T04:39:06;4.60;;;2.83;;
20531;SDS011;10424;52.102;8.084;2024-02-16T04:41:36;4.57;;;2.80;;
20531;SDS011;10424;52.102;8.084;2024-02-16T04:44:03;5.13;;;3.10;;
20531;SDS011;10424;52.102;8.084;2024-02-16T04:46:30;7.07;;;2.92;;
20531;SDS011;10424;52.102;8.084;2024-02-16T04:48:57;4.43;;;2.88;;
20531;SDS011;10424;52.102;8.084;2024-02-16T04:51:24;6.90;;;3.40;;
20531;SDS011;10424;52.102;8.084;2024-02-16T04:53:52;6.15;;;3.45;;
20531;SDS011;10424;52.102;8.084;2024-02-16T04:56:19;4.50;;;3.10;;
20531;SDS011;10424;52.102;8.084;2024-02-16T04:58:49;4.70;;;3.00;;
20531;SDS011;10424;52.102;8.084;2024-02-16T05:01:16;5.57;;;3.22;;
20531;SDS011;10424;52.102;8.084;2024-02-16T05:03:43;6.30;;;3.30;;
20531;SDS011;10424;52.102;8.084;2024-02-16T05:06:10;6.85;;;3.22;;
20531;SDS011;10424;52.102;8.084;2024-02-16T05:08:38;7.15;;;3.00;;
20531;SDS011;10424;52.102;8.084;2024-02-16T05:11:05;5.90;;;3.33;;
20531;SDS011;10424;52.102;8.084;2024-02-16T05:13:32;5.97;;;3.45;;
20531;SDS011;10424;52.102;8.084;2024-02-16T05:16:01;6.10;;;3.20;;
20531;SDS011;10424;52.102;8.084;2024-02-16T05:18:27;7.60;;;3.35;;
20531;SDS011;10424;52.102;8.084;2024-02-16T05:20:54;6.25;;;3.40;;
20531;SDS011;10424;52.102;8.084;2024-02-16T05:23:23;6.10;;;3.55;;
20531;SDS011;10424;52.102;8.084;2024-02-16T05:25:50;6.35;;;3.40;;
20531;SDS011;10424;52.102;8.084;2024-02-16T05:28:19;5.43;;;3.13;;
20531;SDS011;10424;52.102;8.084;2024-02-16T05:30:46;8.00;;;3.58;;
20531;SDS011;10424;52.102;8.084;2024-02-16T05:33:14;5.38;;;3.40;;
20531;SDS011;10424;52.102;8.084;2024-02-16T05:35:42;5.38;;;3.47;;
20531;SDS011;10424;52.102;8.084;2024-02-16T05:38:09;4.60;;;3.17;;
20531;SDS011;10424;52.102;8.084;2024-02-16T05:40:46;6.53;;;3.10;;
20531;SDS011;10424;52.102;8.084;2024-02-16T05:43:21;5.75;;;3.15;;
20531;SDS011;10424;52.102;8.084;2024-02-16T05:45:49;6.65;;;3.40;;
20531;SDS011;10424;52.102;8.084;2024-02-16T05:48:18;9.80;;;3.28;;
20531;SDS011;10424;52.102;8.084;2024-02-16T05:50:46;4.88;;;3.33;;
20531;SDS011;10424;52.102;8.084;2024-02-16T05:53:17;8.48;;;3.30;;
20531;SDS011;10424;52.102;8.084;2024-02-16T05:55:44;5.40;;;3.22;;
20531;SDS011;10424;52.102;8.084;2024-02-16T05:58:12;6.65;;;3.50;;
20531;SDS011;10424;52.102;8.084;2024-02-16T06:00:39;6.00;;;2.90;;
20531;SDS011;10424;52.102;8.084;2024-02-16T06:03:07;7.35;;;3.65;;
20531;SDS011;10424;52.102;8.084;2024-02-16T06:05:36;7.13;;;3.58;;
20531;SDS011;10424;52.102;8.084;2024-02-16T06:08:04;6.25;;;3.15;;
20531;SDS011;10424;52.102;8.084;2024-02-16T06:10:32;5.93;;;3.15;;
20531;SDS011;10424;52.102;8.084;2024-02-16T06:12:59;5.40;;;3.10;;
20531;SDS011;10424;52.102;8.084;2024-02-16T06:15:26;6.75;;;3.30;;
20531;SDS011;10424;52.102;8.084;2024-02-16T06:17:53;7.07;;;3.40;;
20531;SDS011;10424;52.102;8.084;2024-02-16T06:20:20;5.68;;;3.15;;
20531;SDS011;10424;52.102;8.084;2024-02-16T06:22:49;8.18;;;3.30;;
20531;SDS011;10424;52.102;8.084;2024-02-16T06:25:16;5.47;;;3.15;;
20531;SDS011;10424;52.102;8.084;2024-02-16T06:27:43;5.30;;;3.72;;
20531;SDS011;10424;52.102;8.084;2024-02-16T06:30:11;5.55;;;3.08;;
20531;SDS011;10424;52.102;8.084;2024-02-16T06:32:38;6.72;;;3.15;;
20531;SDS011;10424;52.102;8.084;2024-02-16T06:35:07;7.82;;;3.65;;
20531;SDS011;10424;52.102;8.084;2024-02-16T06:37:34;7.78;;;3.83;;
20531;SDS011;10424;52.102;8.084;2024-02-16T06:40:04;7.07;;;3.70;;
20531;SDS011;10424;52.102;8.084;2024-02-16T06:42:34;4.13;;;3.55;;
20531;SDS011;10424;52.102;8.084;2024-02-16T06:45:01;5.45;;;3.50;;
20531;SDS011;10424;52.102;8.084;2024-02-16T06:47:30;10.43;;;3.70;;
20531;SDS011;10424;52.102;8.084;2024-02-16T06:49:57;6.03;;;3.55;;
20531;SDS011;10424;52.102;8.084;2024-02-16T06:52:24;7.40;;;4.15;;
20531;SDS011;10424;52.102;8.084;2024-02-16T06:54:51;7.97;;;3.90;;
20531;SDS011;10424;52.102;8.084;2024-02-16T06:57:20;7.47;;;3.90;;
20531;SDS011;10424;52.102;8.084;2024-02-16T06:59:47;8.38;;;4.07;;
20531;SDS011;10424;52.102;8.084;2024-02-16T07:02:15;6.55;;;3.70;;
20531;SDS011;10424;52.102;8.084;2024-02-16T07:04:43;6.25;;;3.65;;
20531;SDS011;10424;52.102;8.084;2024-02-16T07:07:10;9.63;;;3.70;;
20531;SDS011;10424;52.102;8.084;2024-02-16T07:09:38;6.05;;;3.80;;
20531;SDS011;10424;52.102;8.084;2024-02-16T07:12:05;6.00;;;3.85;;
20531;SDS011;10424;52.102;8.084;2024-02-16T07:14:34;7.07;;;3.55;;
20531;SDS011;10424;52.102;8.084;2024-02-16T07:17:01;11.27;;;4.10;;
20531;SDS011;10424;52.102;8.084;2024-02-16T07:19:28;8.00;;;4.03;;
20531;SDS011;10424;52.102;8.084;2024-02-16T07:21:55;7.13;;;3.70;;
20531;SDS011;10424;52.102;8.084;2024-02-16T07:24:22;10.55;;;3.80;;
20531;SDS011;10424;52.102;8.084;2024-02-16T07:26:50;5.45;;;3.42;;
20531;SDS011;10424;52.102;8.084;2024-02-16T07:29:18;4.97;;;3.33;;
20531;SDS011;10424;52.102;8.084;2024-02-16T07:31:47;9.02;;;3.75;;
20531;SDS011;10424;52.102;8.084;2024-02-16T07:34:16;5.57;;;3.75;;
20531;SDS011;10424;52.102;8.084;2024-02-16T07:36:43;8.25;;;3.72;;
20531;SDS011;10424;52.102;8.084;2024-02-16T07:39:10;6.70;;;3.53;;
20531;SDS011;10424;52.102;8.084;2024-02-16T07:41:38;7.85;;;4.25;;
20531;SDS011;10424;52.102;8.084;2024-02-16T07:44:05;5.75;;;3.33;;
20531;SDS011;10424;52.102;8.084;2024-02-16T07:46:32;7.60;;;3.47;;
20531;SDS011;10424;52.102;8.084;2024-02-16T07:49:02;6.22;;;3.53;;
20531;SDS011;10424;52.102;8.084;2024-02-16T07:51:29;5.03;;;3.33;;
20531;SDS011;10424;52.102;8.084;2024-02-16T07:53:56;5.70;;;3.38;;
20531;SDS011;10424;52.102;8.084;2024-02-16T07:56:24;9.55;;;3.60;;
20531;SDS011;10424;52.102;8.084;2024-02-16T07:58:51;9.38;;;3.60;;
20531;SDS011;10424;52.102;8.084;2024-02-16T08:01:19;7.53;;;3.80;;
20531;SDS011;10424;52.102;8.084;2024-02-16T08:03:46;7.10;;;3.42;;
20531;SDS011;10424;52.102;8.084;2024-02-16T08:06:14;6.95;;;3.35;;
20531;SDS011;10424;52.102;8.084;2024-02-16T08:08:46;8.60;;;3.38;;
20531;SDS011;10424;52.102;8.084;2024-02-16T08:11:13;10.05;;;3.70;;
20531;SDS011;10424;52.102;8.084;2024-02-16T08:13:41;7.95;;;3.78;;
20531;SDS011;10424;52.102;8.084;2024-02-16T08:16:08;5.22;;;3.28;;
20531;SDS011;10424;52.102;8.084;2024-02-16T08:18:35;7.53;;;3.30;;
20531;SDS011;10424;52.102;8.084;2024-02-16T08:21:02;7.85;;;3.83;;
20531;SDS011;10424;52.102;8.084;2024-02-16T08:23:31;10.20;;;3.90;;
20531;SDS011;10424;52.102;8.084;2024-02-16T08:25:59;9.32;;;3.80;;
20531;SDS011;10424;52.102;8.084;2024-02-16T08:28:26;10.25;;;4.10;;
20531;SDS011;10424;52.102;8.084;2024-02-16T08:30:53;8.77;;;3.85;;
20531;SDS011;10424;52.102;8.084;2024-02-16T08:33:20;6.78;;;3.50;;
20531;SDS011;10424;52.102;8.084;2024-02-16T08:35:48;7.93;;;3.28;;
20531;SDS011;10424;52.102;8.084;2024-02-16T08:38:16;10.00;;;3.53;;
20531;SDS011;10424;52.102;8.084;2024-02-16T08:40:44;8.82;;;3.65;;
20531;SDS011;10424;52.102;8.084;2024-02-16T08:43:13;8.52;;;3.85;;
20531;SDS011;10424;52.102;8.084;2024-02-16T08:45:40;7.28;;;3.70;;
20531;SDS011;10424;52.102;8.084;2024-02-16T08:48:07;9.68;;;4.18;;
20531;SDS011;10424;52.102;8.084;2024-02-16T08:50:34;6.93;;;3.35;;
20531;SDS011;10424;52.102;8.084;2024-02-16T08:53:02;5.72;;;3.47;;
20531;SDS011;10424;52.102;8.084;2024-02-16T08:55:29;6.53;;;3.20;;
20531;SDS011;10424;52.102;8.084;2024-02-16T08:57:58;6.47;;;3.40;;
20531;SDS011;10424;52.102;8.084;2024-02-16T09:00:25;7.88;;;3.10;;
20531;SDS011;10424;52.102;8.084;2024-02-16T09:02:53;5.57;;;3.10;;
20531;SDS011;10424;52.102;8.084;2024-02-16T09:05:20;7.20;;;3.10;;
20531;SDS011;10424;52.102;8.084;2024-02-16T09:07:48;8.93;;;3.75;;
20531;SDS011;10424;52.102;8.084;2024-02-16T09:10:15;7.13;;;3.53;;
20531;SDS011;10424;52.102;8.084;2024-02-16T09:12:42;7.70;;;3.22;;
20531;SDS011;10424;52.102;8.084;2024-02-16T09:15:11;4.93;;;3.00;;
20531;SDS011;10424;52.102;8.084;2024-02-16T09:17:38;7.65;;;3.25;;
20531;SDS011;10424;52.102;8.084;2024-02-16T09:20:06;9.45;;;3.97;;
20531;SDS011;10424;52.102;8.084;2024-02-16T09:22:33;7.72;;;3.90;;
20531;SDS011;10424;52.102;8.084;2024-02-16T09:25:01;9.50;;;5.28;;
20531;SDS011;10424;52.102;8.084;2024-02-16T09:27:28;11.02;;;4.47;;
20531;SDS011;10424;52.102;8.084;2024-02-16T09:29:56;10.80;;;4.22;;
20531;SDS011;10424;52.102;8.084;2024-02-16T09:32:25;7.25;;;3.13;;
20531;SDS011;10424;52.102;8.084;2024-02-16T09:34:52;5.72;;;3.20;;
20531;SDS011;10424;52.102;8.084;2024-02-16T09:37:21;10.38;;;3.70;;
20531;SDS011;10424;52.102;8.084;2024-02-16T09:39:48;6.05;;;3.03;;
20531;SDS011;10424;52.102;8.084;2024-02-16T09:42:15;4.88;;;3.28;;
20531;SDS011;10424;52.102;8.084;2024-02-16T09:44:43;4.97;;;2.97;;
20531;SDS011;10424;52.102;8.084;2024-02-16T09:47:11;5.20;;;3.33;;
20531;SDS011;10424;52.102;8.084;2024-02-16T09:49:40;5.88;;;3.17;;
20531;SDS011;10424;52.102;8.084;2024-02-16T09:52:08;6.00;;;3.30;;
20531;SDS011;10424;52.102;8.084;2024-02-16T09:54:37;5.70;;;3.20;;
20531;SDS011;10424;52.102;8.084;2024-02-16T09:57:04;5.32;;;3.10;;
20531;SDS011;10424;52.102;8.084;2024-02-16T09:59:32;7.30;;;3.30;;
20531;SDS011;10424;52.102;8.084;2024-02-16T10:02:00;7.85;;;3.30;;
20531;SDS011;10424;52.102;8.084;2024-02-16T10:04:27;6.95;;;3.03;;
20531;SDS011;10424;52.102;8.084;2024-02-16T10:06:56;5.07;;;3.00;;
20531;SDS011;10424;52.102;8.084;2024-02-16T10:09:24;6.25;;;3.40;;
20531;SDS011;10424;52.102;8.084;2024-02-16T10:11:51;5.22;;;3.15;;
20531;SDS011;10424;52.102;8.084;2024-02-16T10:14:18;5.57;;;3.22;;
20531;SDS011;10424;52.102;8.084;2024-02-16T10:16:45;6.20;;;3.95;;
20531;SDS011;10424;52.102;8.084;2024-02-16T10:19:13;9.70;;;3.30;;
20531;SDS011;10424;52.102;8.084;2024-02-16T10:21:40;6.68;;;3.20;;
20531;SDS011;10424;52.102;8.084;2024-02-16T10:24:10;5.57;;;3.10;;
20531;SDS011;10424;52.102;8.084;2024-02-16T10:26:39;5.32;;;3.25;;
20531;SDS011;10424;52.102;8.084;2024-02-16T10:29:08;7.18;;;3.35;;
20531;SDS011;10424;52.102;8.084;2024-02-16T10:31:35;5.95;;;3.20;;
20531;SDS011;10424;52.102;8.084;2024-02-16T10:34:03;5.95;;;3.10;;
20531;SDS011;10424;52.102;8.084;2024-02-16T10:36:31;6.85;;;3.28;;
20531;SDS011;10424;52.102;8.084;2024-02-16T10:38:59;6.82;;;3.80;;
20531;SDS011;10424;52.102;8.084;2024-02-16T10:41:33;6.10;;;3.35;;
20531;SDS011;10424;52.102;8.084;2024-02-16T10:44:00;7.65;;;2.60;;
20531;SDS011;10424;52.102;8.084;2024-02-16T10:46:28;10.88;;;3.05;;
20531;SDS011;10424;52.102;8.084;2024-02-16T10:48:55;8.48;;;2.80;;
20531;SDS011;10424;52.102;8.084;2024-02-16T10:51:23;8.63;;;3.88;;
20531;SDS011;10424;52.102;8.084;2024-02-16T10:53:51;6.85;;;3.15;;
20531;SDS011;10424;52.102;8.084;2024-02-16T10:56:26;6.50;;;2.92;;
20531;SDS011;10424;52.102;8.084;2024-02-16T10:58:55;7.20;;;3.20;;
20531;SDS011;10424;52.102;8.084;2024-02-16T11:01:27;3.53;;;2.53;;
20531;SDS011;10424;52.102;8.084;2024-02-16T11:04:00;6.10;;;2.78;;
20531;SDS011;10424;52.102;8.084;2024-02-16T11:06:28;4.32;;;2.85;;
20531;SDS011;10424;52.102;8.084;2024-02-16T11:09:01;4.90;;;2.40;;
20531;SDS011;10424;52.102;8.084;2024-02-16T11:11:32;10.65;;;2.97;;
20531;SDS011;10424;52.102;8.084;2024-02-16T11:14:02;6.63;;;2.88;;
20531;SDS011;10424;52.102;8.084;2024-02-16T11:16:29;8.93;;;3.03;;
20531;SDS011;10424;52.102;8.084;2024-02-16T11:18:57;8.05;;;3.13;;
20531;SDS011;10424;52.102;8.084;2024-02-16T11:21:26;6.65;;;2.95;;
20531;SDS011;10424;52.102;8.084;2024-02-16T11:23:53;6.15;;;2.88;;
20531;SDS011;10424;52.102;8.084;2024-02-16T11:26:30;8.07;;;3.00;;
20531;SDS011;10424;52.102;8.084;2024-02-16T11:28:57;6.75;;;2.65;;
20531;SDS011;10424;52.102;8.084;2024-02-16T11:31:26;5.10;;;3.20;;
20531;SDS011;10424;52.102;8.084;2024-02-16T11:33:53;5.50;;;2.90;;
20531;SDS011;10424;52.102;8.084;2024-02-16T11:36:21;4.93;;;2.67;;
20531;SDS011;10424;52.102;8.084;2024-02-16T11:38:49;8.20;;;2.83;;
20531;SDS011;10424;52.102;8.084;2024-02-16T11:41:16;7.70;;;2.88;;
20531;SDS011;10424;52.102;8.084;2024-02-16T11:43:46;7.25;;;3.15;;
20531;SDS011;10424;52.102;8.084;2024-02-16T11:46:14;8.82;;;3.08;;
20531;SDS011;10424;52.102;8.084;2024-02-16T11:48:43;7.68;;;2.90;;
20531;SDS011;10424;52.102;8.084;2024-02-16T11:51:10;8.57;;;3.47;;
20531;SDS011;10424;52.102;8.084;2024-02-16T11:53:37;7.40;;;3.08;;
20531;SDS011;10424;52.102;8.084;2024-02-16T11:56:05;4.45;;;2.80;;
20531;SDS011;10424;52.102;8.084;2024-02-16T11:58:32;5.78;;;2.80;;
20531;SDS011;10424;52.102;8.084;2024-02-16T12:00:59;6.28;;;3.13;;
20531;SDS011;10424;52.102;8.084;2024-02-16T12:03:28;4.57;;;2.83;;
20531;SDS011;10424;52.102;8.084;2024-02-16T12:05:57;6.13;;;3.10;;
20531;SDS011;10424;52.102;8.084;2024-02-16T12:08:31;7.80;;;3.22;;
20531;SDS011;10424;52.102;8.084;2024-02-16T12:11:00;8.75;;;3.40;;
20531;SDS011;10424;52.102;8.084;2024-02-16T12:13:27;5.32;;;3.17;;
20531;SDS011;10424;52.102;8.084;2024-02-16T12:15:54;6.32;;;3.85;;
20531;SDS011;10424;52.102;8.084;2024-02-16T12:18:23;7.47;;;3.22;;
20531;SDS011;10424;52.102;8.084;2024-02-16T12:20:58;6.80;;;3.70;;
20531;SDS011;10424;52.102;8.084;2024-02-16T12:23:26;6.85;;;3.30;;
20531;SDS011;10424;52.102;8.084;2024-02-16T12:25:53;7.60;;;3.45;;
20531;SDS011;10424;52.102;8.084;2024-02-16T12:28:23;11.23;;;4.20;;
20531;SDS011;10424;52.102;8.084;2024-02-16T12:30:51;10.13;;;4.47;;
20531;SDS011;10424;52.102;8.084;2024-02-16T12:33:18;6.68;;;4.03;;
20531;SDS011;10424;52.102;8.084;2024-02-16T12:35:45;9.43;;;4.47;;
20531;SDS011;10424;52.102;8.084;2024-02-16T12:38:14;9.75;;;4.25;;
20531;SDS011;10424;52.102;8.084;2024-02-16T12:40:42;10.55;;;5.20;;
20531;SDS011;10424;52.102;8.084;2024-02-16T12:43:10;7.88;;;4.32;;
20531;SDS011;10424;52.102;8.084;2024-02-16T12:45:37;9.18;;;5.10;;
20531;SDS011;10424;52.102;8.084;2024-02-16T12:48:05;10.38;;;5.57;;
20531;SDS011;10424;52.102;8.084;2024-02-16T12:50:33;9.75;;;5.80;;
20531;SDS011;10424;52.102;8.084;2024-02-16T12:53:00;12.07;;;6.15;;
20531;SDS011;10424;52.102;8.084;2024-02-16T12:55:29;9.73;;;5.47;;
20531;SDS011;10424;52.102;8.084;2024-02-16T12:57:56;11.40;;;6.20;;
20531;SDS011;10424;52.102;8.084;2024-02-16T13:00:23;11.18;;;5.55;;
20531;SDS011;10424;52.102;8.084;2024-02-16T13:02:51;11.50;;;6.43;;
20531;SDS011;10424;52.102;8.084;2024-02-16T13:05:18;13.00;;;7.45;;
20531;SDS011;10424;52.102;8.084;2024-02-16T13:07:46;11.48;;;7.80;;
20531;SDS011;10424;52.102;8.084;2024-02-16T13:10:13;11.23;;;6.90;;
20531;SDS011;10424;52.102;8.084;2024-02-16T13:12:42;12.80;;;7.60;;
20531;SDS011;10424;52.102;8.084;2024-02-16T13:15:09;15.35;;;7.80;;
20531;SDS011;10424;52.102;8.084;2024-02-16T13:17:36;15.48;;;6.75;;
20531;SDS011;10424;52.102;8.084;2024-02-16T13:20:03;8.05;;;5.43;;
20531;SDS011;10424;52.102;8.084;2024-02-16T13:22:34;11.82;;;7.07;;
20531;SDS011;10424;52.102;8.084;2024-02-16T13:25:02;10.68;;;6.35;;
20531;SDS011;10424;52.102;8.084;2024-02-16T13:27:30;12.55;;;5.40;;
20531;SDS011;10424;52.102;8.084;2024-02-16T13:29:59;11.20;;;6.18;;
20531;SDS011;10424;52.102;8.084;2024-02-16T13:32:26;12.93;;;7.30;;
20531;SDS011;10424;52.102;8.084;2024-02-16T13:34:53;14.77;;;6.65;;
20531;SDS011;10424;52.102;8.084;2024-02-16T13:37:21;11.75;;;6.03;;
20531;SDS011;10424;52.102;8.084;2024-02-16T13:39:48;9.50;;;5.53;;
20531;SDS011;10424;52.102;8.084;2024-02-16T13:42:16;9.60;;;5.57;;
20531;SDS011;10424;52.102;8.084;2024-02-16T13:44:44;8.35;;;5.78;;
20531;SDS011;10424;52.102;8.084;2024-02-16T13:47:14;12.00;;;6.07;;
20531;SDS011;10424;52.102;8.084;2024-02-16T13:49:41;14.25;;;5.85;;
20531;SDS011;10424;52.102;8.084;2024-02-16T13:52:08;10.13;;;6.05;;
20531;SDS011;10424;52.102;8.084;2024-02-16T13:54:35;12.60;;;5.80;;
20531;SDS011;10424;52.102;8.084;2024-02-16T13:57:03;11.68;;;5.88;;
20531;SDS011;10424;52.102;8.084;2024-02-16T13:59:30;12.75;;;6.20;;
20531;SDS011;10424;52.102;8.084;2024-02-16T14:01:58;13.15;;;5.65;;
20531;SDS011;10424;52.102;8.084;2024-02-16T14:04:27;9.85;;;5.45;;
20531;SDS011;10424;52.102;8.084;2024-02-16T14:06:54;11.77;;;5.25;;
20531;SDS011;10424;52.102;8.084;2024-02-16T14:09:22;13.18;;;6.13;;
20531;SDS011;10424;52.102;8.084;2024-02-16T14:11:51;10.35;;;5.60;;
20531;SDS011;10424;52.102;8.084;2024-02-16T14:14:19;10.43;;;6.00;;
20531;SDS011;10424;52.102;8.084;2024-02-16T14:16:46;10.30;;;5.25;;
20531;SDS011;10424;52.102;8.084;2024-02-16T14:19:14;12.50;;;6.25;;
20531;SDS011;10424;52.102;8.084;2024-02-16T14:21:43;9.80;;;5.32;;
20531;SDS011;10424;52.102;8.084;2024-02-16T14:24:12;13.50;;;7.03;;
20531;SDS011;10424;52.102;8.084;2024-02-16T14:26:39;15.95;;;7.15;;
20531;SDS011;10424;52.102;8.084;2024-02-16T14:29:07;13.63;;;7.28;;
20531;SDS011;10424;52.102;8.084;2024-02-16T14:31:35;15.85;;;7.97;;
20531;SDS011;10424;52.102;8.084;2024-02-16T14:34:03;12.05;;;7.85;;
20531;SDS011;10424;52.102;8.084;2024-02-16T14:36:30;14.73;;;7.75;;
20531;SDS011;10424;52.102;8.084;2024-02-16T14:38:58;13.27;;;7.38;;
20531;SDS011;10424;52.102;8.084;2024-02-16T14:41:26;15.10;;;8.40;;
20531;SDS011;10424;52.102;8.084;2024-02-16T14:43:54;13.10;;;8.32;;
20531;SDS011;10424;52.102;8.084;2024-02-16T14:46:24;13.02;;;8.00;;
20531;SDS011;10424;52.102;8.084;2024-02-16T14:48:52;13.93;;;8.85;;